Time;durP1;ratioP1;P1;durP2;ratioP2;P2;SDS_P1;SDS_P2;PMS_P1;PMS_P2;Temp;Humidity;BMP_temperature;BMP_pressure;BME280_temperature;BME280_humidity;BME280_pressure;Samples;Min_cycle;Max_cycle;Signal;HPM_P1;HPM_P2
2022/03/03 00:00:15;;;;;;;190.98;97.13;;;1.80;99.90;;;;;;5103973;28;20047;-77
2022/03/03 00:02:42;;;;;;;186.45;98.20;;;1.70;99.90;;;;;;5069774;28;20040;-77
2022/03/03 00:05:09;;;;;;;171.40;90.85;;;1.80;99.90;;;;;;5090212;28;20085;-77
2022/03/03 00:07:35;;;;;;;183.27;96.70;;;1.80;99.90;;;;;;5071107;28;20051;-77
2022/03/03 00:10:04;;;;;;;183.90;95.55;;;1.80;99.90;;;;;;5071686;28;20040;-76
2022/03/03 00:12:30;;;;;;;181.50;95.80;;;1.80;99.90;;;;;;5069753;28;20054;-77
2022/03/03 00:14:56;;;;;;;176.70;95.85;;;1.80;99.90;;;;;;5072525;28;20047;-77
2022/03/03 00:17:22;;;;;;;181.55;96.70;;;1.80;99.90;;;;;;5104339;27;20094;-77
2022/03/03 00:19:47;;;;;;;201.93;98.78;;;1.80;99.90;;;;;;5072309;28;20047;-77
2022/03/03 00:22:15;;;;;;;168.93;92.50;;;1.70;99.90;;;;;;5101630;28;20538;-77
2022/03/03 00:24:41;;;;;;;172.82;94.53;;;1.70;99.90;;;;;;5087319;28;20052;-77
2022/03/03 00:27:08;;;;;;;182.15;94.00;;;1.70;99.90;;;;;;5070094;28;20051;-77
2022/03/03 00:29:34;;;;;;;185.65;99.47;;;1.70;99.90;;;;;;5070443;28;20052;-77
2022/03/03 00:32:00;;;;;;;195.43;100.40;;;1.60;99.90;;;;;;5069653;28;20036;-77
2022/03/03 00:34:25;;;;;;;187.63;96.90;;;1.60;99.90;;;;;;5069450;28;20052;-76
2022/03/03 00:36:51;;;;;;;183.73;95.93;;;1.50;99.90;;;;;;5057272;28;20047;-77
2022/03/03 00:39:17;;;;;;;184.00;99.35;;;1.50;99.90;;;;;;5072276;28;20048;-77
2022/03/03 00:41:42;;;;;;;177.10;93.07;;;1.50;99.90;;;;;;5066819;28;20455;-77
2022/03/03 00:44:09;;;;;;;182.82;96.20;;;1.50;99.90;;;;;;5065305;28;20032;-77
2022/03/03 00:46:39;;;;;;;166.90;90.25;;;1.50;99.90;;;;;;5104376;27;20699;-77
2022/03/03 00:49:05;;;;;;;175.35;95.35;;;1.40;99.90;;;;;;5103960;27;20075;-77
2022/03/03 00:51:31;;;;;;;156.85;90.00;;;1.50;99.90;;;;;;5099621;28;20048;-77
2022/03/03 00:53:57;;;;;;;164.63;90.13;;;1.40;99.90;;;;;;5103734;27;20546;-76
2022/03/03 00:56:24;;;;;;;146.90;81.65;;;1.40;99.90;;;;;;5070240;28;20040;-75
2022/03/03 00:58:50;;;;;;;147.20;79.53;;;1.30;99.90;;;;;;5069394;28;20040;-76
2022/03/03 01:01:16;;;;;;;152.70;83.88;;;1.30;99.90;;;;;;5071098;28;20802;-75
2022/03/03 01:03:42;;;;;;;160.95;90.00;;;1.20;99.90;;;;;;5070915;28;20056;-75
2022/03/03 01:06:09;;;;;;;164.65;88.93;;;1.20;99.90;;;;;;5070160;28;21119;-75
2022/03/03 01:08:35;;;;;;;162.95;85.80;;;1.20;99.90;;;;;;5069816;28;20044;-75
2022/03/03 01:11:00;;;;;;;154.43;80.05;;;1.10;99.90;;;;;;5062187;28;20055;-75
2022/03/03 01:13:26;;;;;;;156.45;85.75;;;1.10;99.90;;;;;;5068702;28;20052;-76
2022/03/03 01:15:53;;;;;;;134.35;76.78;;;1.00;99.90;;;;;;5068001;28;20489;-75
2022/03/03 01:18:20;;;;;;;148.93;80.90;;;1.00;99.90;;;;;;5103919;28;20455;-76
2022/03/03 01:20:46;;;;;;;150.10;83.60;;;0.90;99.90;;;;;;5069277;28;20163;-76
2022/03/03 01:23:12;;;;;;;144.32;77.65;;;0.90;99.90;;;;;;5088073;28;20105;-76
2022/03/03 01:25:38;;;;;;;155.20;86.10;;;0.90;99.90;;;;;;5070628;28;20048;-76
2022/03/03 01:28:04;;;;;;;139.55;80.95;;;0.80;99.90;;;;;;5103902;28;20079;-76
2022/03/03 01:30:31;;;;;;;154.30;84.60;;;0.80;99.90;;;;;;5071810;28;20048;-76
2022/03/03 01:32:57;;;;;;;148.55;84.20;;;0.80;99.90;;;;;;5088929;28;20044;-77
2022/03/03 01:35:22;;;;;;;156.68;85.38;;;0.70;99.90;;;;;;5070705;28;20058;-76
2022/03/03 01:37:48;;;;;;;163.55;85.25;;;0.70;99.90;;;;;;5073078;28;20044;-77
2022/03/03 01:40:14;;;;;;;151.07;82.80;;;0.70;99.90;;;;;;5073878;28;20127;-77
2022/03/03 01:42:40;;;;;;;145.60;80.75;;;0.70;99.90;;;;;;5072506;28;20386;-77
2022/03/03 01:45:06;;;;;;;162.38;88.20;;;0.70;99.90;;;;;;5071989;28;20614;-76
2022/03/03 01:47:32;;;;;;;154.82;88.90;;;0.70;99.90;;;;;;5075727;28;20512;-77
2022/03/03 01:49:59;;;;;;;161.55;87.07;;;0.60;99.90;;;;;;5075586;28;20073;-76
2022/03/03 01:52:25;;;;;;;159.75;87.28;;;0.60;99.90;;;;;;5105106;28;20048;-76
2022/03/03 01:54:52;;;;;;;144.90;82.55;;;0.50;99.90;;;;;;5073135;28;20048;-77
2022/03/03 01:57:19;;;;;;;141.23;80.20;;;0.50;99.90;;;;;;5091054;28;20050;-77
2022/03/03 01:59:46;;;;;;;144.18;84.75;;;0.50;99.90;;;;;;5072473;28;20048;-76
2022/03/03 02:02:12;;;;;;;155.18;88.07;;;0.50;99.90;;;;;;5107366;27;20130;-76
2022/03/03 02:04:39;;;;;;;150.10;85.00;;;0.40;99.90;;;;;;5067147;28;20126;-76
2022/03/03 02:07:10;;;;;;;153.38;85.90;;;0.30;99.90;;;;;;5072904;28;20104;-77
2022/03/03 02:09:36;;;;;;;161.13;91.18;;;0.30;99.90;;;;;;5065146;28;20036;-77
2022/03/03 02:12:04;;;;;;;158.18;89.15;;;0.30;99.90;;;;;;5073352;28;20084;-77
2022/03/03 02:14:40;;;;;;;155.40;84.47;;;0.30;99.90;;;;;;5106942;27;20082;-77
2022/03/03 02:17:06;;;;;;;152.35;81.43;;;0.30;99.90;;;;;;5072441;28;20051;-77
2022/03/03 02:19:31;;;;;;;149.00;84.75;;;0.30;99.90;;;;;;5091029;28;20047;-77
2022/03/03 02:21:57;;;;;;;168.25;88.45;;;0.30;99.90;;;;;;5106493;28;20508;-76
2022/03/03 02:24:22;;;;;;;145.32;82.43;;;0.20;99.90;;;;;;5068553;28;20044;-77
2022/03/03 02:26:48;;;;;;;163.20;88.05;;;0.20;99.90;;;;;;5103730;28;20481;-77
2022/03/03 02:29:14;;;;;;;149.70;83.25;;;0.20;99.90;;;;;;5072409;28;20048;-77
2022/03/03 02:31:41;;;;;;;157.27;89.88;;;0.20;99.90;;;;;;5072342;28;20036;-77
2022/03/03 02:34:07;;;;;;;157.45;89.20;;;0.20;99.90;;;;;;5090299;28;20079;-77
2022/03/03 02:36:33;;;;;;;169.13;90.97;;;0.20;99.90;;;;;;5108033;27;20059;-77
2022/03/03 02:39:01;;;;;;;164.55;93.28;;;0.20;99.90;;;;;;5072158;28;20047;-77
2022/03/03 02:41:27;;;;;;;169.00;92.43;;;0.20;99.90;;;;;;5106752;27;20513;-77
2022/03/03 02:43:54;;;;;;;166.30;88.57;;;0.20;99.90;;;;;;5072541;28;20397;-77
2022/03/03 02:46:20;;;;;;;152.57;84.30;;;0.20;99.90;;;;;;5072035;28;20044;-77
2022/03/03 02:48:46;;;;;;;164.50;88.40;;;0.20;99.90;;;;;;5074602;28;20067;-77
2022/03/03 02:51:12;;;;;;;166.18;93.85;;;0.20;99.90;;;;;;5069737;28;20485;-77
2022/03/03 02:53:38;;;;;;;177.57;96.05;;;0.20;99.90;;;;;;5070845;28;20047;-77
2022/03/03 02:56:05;;;;;;;146.98;87.65;;;0.20;99.90;;;;;;5070782;28;20066;-77
2022/03/03 02:58:31;;;;;;;166.25;91.00;;;0.30;99.90;;;;;;5105489;28;20089;-77
2022/03/03 03:00:58;;;;;;;154.75;83.90;;;0.20;99.90;;;;;;5071154;28;20040;-77
2022/03/03 03:03:25;;;;;;;149.88;88.53;;;0.20;99.90;;;;;;5090306;28;20062;-77
2022/03/03 03:05:51;;;;;;;152.50;85.97;;;0.20;99.90;;;;;;5087534;28;20074;-77
2022/03/03 03:08:16;;;;;;;180.80;93.68;;;0.10;99.90;;;;;;5071080;28;20494;-77
2022/03/03 03:10:43;;;;;;;181.88;97.13;;;0.20;99.90;;;;;;5104480;27;20044;-75
2022/03/03 03:13:14;;;;;;;179.50;95.95;;;0.10;99.90;;;;;;5071995;28;20044;-78
2022/03/03 03:15:41;;;;;;;188.02;93.70;;;0.20;99.90;;;;;;5100252;28;20076;-75
2022/03/03 03:18:11;;;;;;;181.82;99.13;;;0.20;99.90;;;;;;5055317;28;20048;-75
2022/03/03 03:20:39;;;;;;;182.23;96.13;;;0.20;99.90;;;;;;5070258;28;20043;-75
2022/03/03 03:23:05;;;;;;;167.55;95.22;;;0.20;99.90;;;;;;5084216;28;20040;-76
2022/03/03 03:25:31;;;;;;;167.05;93.93;;;0.20;99.90;;;;;;5101968;27;20051;-75
2022/03/03 03:27:57;;;;;;;189.27;96.57;;;0.20;99.90;;;;;;5102928;28;20048;-76
2022/03/03 03:30:22;;;;;;;189.05;100.65;;;0.10;99.90;;;;;;5069255;28;20051;-76
2022/03/03 03:32:49;;;;;;;169.82;92.75;;;0.10;99.90;;;;;;5071716;28;20397;-76
2022/03/03 03:35:15;;;;;;;202.43;100.13;;;0.10;99.90;;;;;;5069503;28;20083;-75
2022/03/03 03:37:40;;;;;;;178.88;99.07;;;0.10;99.90;;;;;;5103092;27;20153;-77
2022/03/03 03:40:08;;;;;;;174.52;100.32;;;0.10;99.90;;;;;;5072675;28;20081;-76
2022/03/03 03:42:34;;;;;;;174.00;96.35;;;0.10;99.90;;;;;;5070292;28;20111;-75
2022/03/03 03:45:00;;;;;;;181.50;95.18;;;0.10;99.90;;;;;;5070840;28;20050;-76
2022/03/03 03:47:25;;;;;;;177.30;96.45;;;0.10;99.90;;;;;;5073417;28;20056;-76
2022/03/03 03:49:51;;;;;;;185.90;99.18;;;0.10;99.90;;;;;;5071822;28;20068;-78
2022/03/03 03:52:17;;;;;;;171.23;97.40;;;0.10;99.90;;;;;;5067825;28;20075;-78
2022/03/03 03:54:43;;;;;;;166.88;95.65;;;0.10;99.90;;;;;;5070751;28;20087;-78
2022/03/03 03:57:08;;;;;;;167.43;95.32;;;0.10;99.90;;;;;;5072664;28;20039;-78
2022/03/03 03:59:35;;;;;;;182.93;100.75;;;0.10;99.90;;;;;;5070249;28;20044;-78
2022/03/03 04:02:00;;;;;;;179.52;96.45;;;0.10;99.90;;;;;;5069794;28;20042;-78
2022/03/03 04:04:26;;;;;;;172.90;95.57;;;0.10;99.90;;;;;;5071547;28;20052;-78
2022/03/03 04:06:52;;;;;;;168.27;93.95;;;0.10;99.90;;;;;;5070530;28;20115;-78
2022/03/03 04:09:17;;;;;;;177.57;98.70;;;0.10;99.90;;;;;;5104144;28;22537;-78
2022/03/03 04:11:43;;;;;;;173.32;96.03;;;0.10;99.90;;;;;;5070238;28;20722;-78
2022/03/03 04:14:09;;;;;;;165.38;96.15;;;0.20;99.90;;;;;;5088553;28;20054;-77
2022/03/03 04:16:35;;;;;;;175.05;95.43;;;0.20;99.90;;;;;;5072559;28;20044;-77
2022/03/03 04:19:01;;;;;;;179.10;97.93;;;0.20;99.90;;;;;;5088028;28;20052;-78
2022/03/03 04:21:26;;;;;;;177.38;99.88;;;0.20;99.90;;;;;;5087382;28;20390;-78
2022/03/03 04:23:52;;;;;;;159.80;95.60;;;0.20;99.90;;;;;;5071831;28;20032;-78
2022/03/03 04:26:18;;;;;;;172.63;95.97;;;0.20;99.90;;;;;;5069746;28;20044;-78
2022/03/03 04:28:43;;;;;;;152.07;85.03;;;0.10;99.90;;;;;;5088381;28;20055;-78
2022/03/03 04:31:10;;;;;;;166.63;92.20;;;0.10;99.90;;;;;;5070372;28;20101;-78
2022/03/03 04:33:36;;;;;;;143.35;83.97;;;0.10;99.90;;;;;;5098453;28;20094;-78
2022/03/03 04:36:04;;;;;;;146.10;85.70;;;0.10;99.90;;;;;;5064788;28;20577;-78
2022/03/03 04:38:30;;;;;;;155.40;87.07;;;0.20;99.90;;;;;;5069207;28;20047;-78
2022/03/03 04:40:55;;;;;;;151.18;83.53;;;0.20;99.90;;;;;;5068104;28;20106;-78
2022/03/03 04:43:21;;;;;;;148.32;83.45;;;0.20;99.90;;;;;;5087426;28;20098;-78
2022/03/03 04:45:47;;;;;;;148.02;85.03;;;0.10;99.90;;;;;;5105424;27;20052;-78
2022/03/03 04:48:12;;;;;;;140.75;83.05;;;0.10;99.90;;;;;;5071697;28;20493;-77
2022/03/03 04:50:38;;;;;;;140.45;83.05;;;0.10;99.90;;;;;;5103448;28;20718;-78
2022/03/03 04:53:04;;;;;;;134.32;80.35;;;0.10;99.90;;;;;;5067708;28;20064;-78
2022/03/03 04:55:29;;;;;;;147.07;83.22;;;0.10;99.90;;;;;;5100329;27;20090;-78
2022/03/03 04:57:55;;;;;;;145.38;81.93;;;0.10;99.90;;;;;;5066254;28;20048;-78
2022/03/03 05:00:21;;;;;;;147.20;84.72;;;0.00;99.90;;;;;;5066049;28;20098;-78
2022/03/03 05:02:46;;;;;;;151.13;86.35;;;0.00;99.90;;;;;;5065600;28;20055;-78
2022/03/03 05:05:13;;;;;;;142.93;85.15;;;-0.10;99.90;;;;;;5066780;28;20044;-78
2022/03/03 05:07:40;;;;;;;143.10;81.70;;;-0.10;99.90;;;;;;5060888;28;20123;-78
2022/03/03 05:10:06;;;;;;;140.68;84.72;;;-0.10;99.90;;;;;;5066498;28;20036;-78
2022/03/03 05:12:32;;;;;;;144.48;85.85;;;-0.20;99.90;;;;;;5065814;28;20062;-78
2022/03/03 05:14:57;;;;;;;143.10;82.78;;;-0.20;99.90;;;;;;5066285;28;20117;-78
2022/03/03 05:17:24;;;;;;;168.10;89.97;;;-0.20;99.90;;;;;;5067079;28;20040;-77
2022/03/03 05:19:49;;;;;;;146.15;86.05;;;-0.30;99.90;;;;;;5066949;28;20079;-77
2022/03/03 05:22:16;;;;;;;143.25;82.10;;;-0.30;99.90;;;;;;5066527;28;20517;-77
2022/03/03 05:24:43;;;;;;;157.07;85.25;;;-0.30;99.90;;;;;;5066257;28;20042;-78
2022/03/03 05:27:08;;;;;;;141.00;83.63;;;-0.30;99.90;;;;;;5067120;28;20044;-78
2022/03/03 05:29:34;;;;;;;142.82;83.82;;;-0.40;99.90;;;;;;5066286;28;20126;-78
2022/03/03 05:31:59;;;;;;;141.38;80.53;;;-0.40;99.90;;;;;;5060205;28;20080;-78
2022/03/03 05:34:26;;;;;;;153.75;82.40;;;-0.30;99.90;;;;;;5067307;28;20052;-78
2022/03/03 05:36:52;;;;;;;134.63;78.05;;;-0.30;99.90;;;;;;5061699;28;20044;-78
2022/03/03 05:39:18;;;;;;;133.45;77.80;;;-0.30;99.90;;;;;;5068026;28;20062;-78
2022/03/03 05:41:44;;;;;;;136.32;83.13;;;-0.30;99.90;;;;;;5064981;28;20148;-77
2022/03/03 05:44:13;;;;;;;142.38;82.53;;;-0.30;99.90;;;;;;5066576;28;20056;-78
2022/03/03 05:46:44;;;;;;;136.95;80.95;;;-0.40;99.90;;;;;;5066785;28;20060;-78
2022/03/03 05:49:10;;;;;;;137.13;81.70;;;-0.40;99.90;;;;;;5066538;28;20036;-78
2022/03/03 05:51:37;;;;;;;146.32;79.65;;;-0.40;99.90;;;;;;5066869;28;20036;-78
2022/03/03 05:54:04;;;;;;;145.05;81.18;;;-0.50;99.90;;;;;;5087720;28;20052;-78
2022/03/03 05:56:32;;;;;;;135.18;80.88;;;-0.50;99.90;;;;;;5087967;28;20705;-78
2022/03/03 05:59:01;;;;;;;139.07;80.50;;;-0.50;99.90;;;;;;5067664;28;20047;-78
2022/03/03 06:01:28;;;;;;;136.80;78.47;;;-0.50;99.90;;;;;;5068722;28;20047;-78
2022/03/03 06:03:59;;;;;;;130.13;79.50;;;-0.50;99.90;;;;;;5070242;28;20137;-78
2022/03/03 06:06:28;;;;;;;130.15;77.93;;;-0.60;99.90;;;;;;5069317;28;20076;-78
2022/03/03 06:08:56;;;;;;;133.35;76.90;;;-0.50;99.90;;;;;;5063456;28;20040;-78
2022/03/03 06:11:25;;;;;;;131.82;77.15;;;-0.60;99.90;;;;;;5085118;28;20048;-78
2022/03/03 06:13:57;;;;;;;142.50;85.65;;;-0.60;99.90;;;;;;5097926;28;20137;-77
2022/03/03 06:16:25;;;;;;;127.25;79.30;;;-0.60;99.90;;;;;;5084733;28;20122;-78
2022/03/03 06:18:51;;;;;;;142.55;82.22;;;-0.60;99.90;;;;;;5063460;28;20051;-78
2022/03/03 06:21:17;;;;;;;129.43;75.15;;;-0.60;99.90;;;;;;5070209;28;20059;-78
2022/03/03 06:23:43;;;;;;;142.27;82.38;;;-0.60;99.90;;;;;;5072186;28;20044;-78
2022/03/03 06:26:18;;;;;;;142.27;84.57;;;-0.60;99.90;;;;;;5072190;28;20039;-78
2022/03/03 06:28:44;;;;;;;135.30;80.95;;;-0.50;99.90;;;;;;5074246;28;20044;-78
2022/03/03 06:31:11;;;;;;;129.23;80.22;;;-0.50;99.90;;;;;;5104788;27;20155;-77
2022/03/03 06:33:37;;;;;;;136.90;80.53;;;-0.40;99.90;;;;;;5069542;28;20075;-78
2022/03/03 06:36:04;;;;;;;137.45;80.97;;;-0.40;99.90;;;;;;5072550;28;20477;-78
2022/03/03 06:38:29;;;;;;;128.18;77.85;;;-0.30;99.90;;;;;;5105757;28;20830;-78
2022/03/03 06:40:57;;;;;;;141.15;77.93;;;-0.20;99.90;;;;;;5074722;28;20044;-78
2022/03/03 06:43:29;;;;;;;127.20;79.40;;;-0.20;99.90;;;;;;5073417;28;20055;-78
2022/03/03 06:45:56;;;;;;;132.85;78.18;;;-0.10;99.90;;;;;;5089856;28;20051;-78
2022/03/03 06:48:22;;;;;;;133.75;80.05;;;0.00;99.90;;;;;;5076062;28;20105;-77
2022/03/03 06:50:51;;;;;;;132.65;79.63;;;0.00;99.90;;;;;;5072429;28;20048;-78
2022/03/03 06:53:27;;;;;;;126.43;75.75;;;0.10;99.90;;;;;;5069498;28;20048;-78
2022/03/03 06:56:01;;;;;;;122.85;77.63;;;0.20;99.90;;;;;;5064877;28;20049;-78
2022/03/03 06:58:29;;;;;;;120.30;74.32;;;0.40;99.90;;;;;;5069821;28;20045;-78
2022/03/03 07:00:56;;;;;;;132.63;77.50;;;0.60;99.90;;;;;;5070680;28;20152;-78
2022/03/03 07:03:22;;;;;;;126.90;74.25;;;0.70;99.90;;;;;;5068069;28;20082;-78
2022/03/03 07:05:50;;;;;;;125.25;75.60;;;0.70;99.90;;;;;;5085691;28;20053;-75
2022/03/03 07:08:20;;;;;;;123.72;73.78;;;0.80;99.90;;;;;;5068908;28;20527;-76
2022/03/03 07:10:46;;;;;;;116.38;72.07;;;0.90;99.90;;;;;;5069575;28;20482;-77
2022/03/03 07:13:16;;;;;;;115.07;73.70;;;0.90;99.90;;;;;;5067888;28;20047;-76
2022/03/03 07:15:51;;;;;;;118.30;72.65;;;0.90;99.90;;;;;;5069021;28;20048;-77
2022/03/03 07:18:40;;;;;;;116.82;73.00;;;0.80;99.90;;;;;;5067242;28;20052;-78
2022/03/03 07:21:10;;;;;;;122.43;72.85;;;0.80;99.90;;;;;;5067339;28;20062;-75
2022/03/03 07:23:39;;;;;;;119.60;73.15;;;0.90;99.90;;;;;;5065725;28;20127;-77
2022/03/03 07:26:07;;;;;;;;;;;1.00;99.90;;;;;;5068660;28;20102;-74
2022/03/03 07:28:34;;;;;;;114.18;73.07;;;1.00;99.90;;;;;;5101564;28;20349;-74
2022/03/03 07:31:01;;;;;;;113.50;74.15;;;1.00;99.90;;;;;;5068628;28;20509;-74
2022/03/03 07:33:48;;;;;;;111.75;69.35;;;1.00;99.90;;;;;;5066740;28;20048;-72
2022/03/03 07:36:18;;;;;;;122.50;73.10;;;1.00;99.90;;;;;;5067106;28;20434;-73
2022/03/03 07:38:56;;;;;;;119.72;69.88;;;1.10;99.90;;;;;;5065584;28;20048;-71
2022/03/03 07:41:22;;;;;;;119.75;71.85;;;1.20;99.90;;;;;;5100105;28;20051;-72
2022/03/03 07:43:49;;;;;;;114.88;71.53;;;1.20;99.90;;;;;;5083647;28;20650;-72
2022/03/03 07:46:15;;;;;;;110.28;68.20;;;1.30;99.90;;;;;;5067704;28;20115;-73
2022/03/03 07:48:46;;;;;;;120.22;73.10;;;1.40;99.90;;;;;;5083150;28;20449;-72
2022/03/03 07:51:12;;;;;;;113.50;71.95;;;1.50;99.90;;;;;;5062383;28;20032;-72
2022/03/03 07:53:40;;;;;;;123.63;74.20;;;1.60;99.90;;;;;;5062965;28;20094;-71
2022/03/03 07:56:09;;;;;;;109.50;70.00;;;1.70;99.90;;;;;;5069395;28;20470;-71
2022/03/03 07:58:41;;;;;;;112.72;70.35;;;1.80;99.90;;;;;;5066795;28;20047;-71
2022/03/03 08:01:09;;;;;;;112.35;73.78;;;1.80;99.90;;;;;;5067037;28;20501;-71
2022/03/03 08:03:35;;;;;;;118.05;72.47;;;1.90;99.90;;;;;;5067915;28;20466;-70
2022/03/03 08:06:01;;;;;;;114.03;72.63;;;2.00;99.90;;;;;;5063026;28;20044;-71
2022/03/03 08:08:29;;;;;;;113.93;70.55;;;2.00;99.90;;;;;;5068415;28;20425;-71
2022/03/03 08:10:58;;;;;;;111.40;70.38;;;2.10;99.90;;;;;;5049355;28;20489;-71
2022/03/03 08:13:27;;;;;;;123.70;71.82;;;2.10;99.90;;;;;;5064232;28;20546;-70
2022/03/03 08:15:53;;;;;;;102.00;67.22;;;2.20;99.90;;;;;;5067557;28;20506;-71
2022/03/03 08:18:20;;;;;;;107.63;70.03;;;2.20;99.90;;;;;;5068572;28;20058;-70
2022/03/03 08:20:46;;;;;;;109.40;66.50;;;2.20;99.90;;;;;;5068060;28;20140;-69
2022/03/03 08:23:12;;;;;;;113.35;68.00;;;2.20;99.90;;;;;;5097816;28;20538;-77
2022/03/03 08:25:38;;;;;;;108.30;70.03;;;2.30;99.90;;;;;;5052254;28;20131;-75
2022/03/03 08:28:06;;;;;;;109.15;69.55;;;2.30;99.90;;;;;;5070023;28;20139;-75
2022/03/03 08:30:34;;;;;;;117.43;68.05;;;2.30;99.90;;;;;;5078696;28;20055;-75
2022/03/03 08:33:33;;;;;;;109.53;67.22;;;2.30;99.90;;;;;;5066157;28;20048;-73
2022/03/03 08:36:01;;;;;;;101.95;67.00;;;2.30;99.90;;;;;;5062613;28;20096;-76
2022/03/03 08:38:36;;;;;;;110.55;68.65;;;2.40;99.90;;;;;;5064204;28;20083;-76
2022/03/03 08:41:04;;;;;;;111.32;68.05;;;2.40;99.90;;;;;;5066683;28;20593;-77
2022/03/03 08:43:32;;;;;;;115.88;65.57;;;2.50;99.90;;;;;;5049349;28;20052;-78
2022/03/03 08:46:05;;;;;;;116.70;71.38;;;2.60;99.90;;;;;;5066502;28;20634;-77
2022/03/03 08:48:32;;;;;;;111.55;68.57;;;2.60;99.90;;;;;;5064431;28;20048;-70
2022/03/03 08:51:03;;;;;;;108.28;68.82;;;2.70;99.90;;;;;;5065806;28;20541;-69
2022/03/03 08:53:30;;;;;;;111.53;66.15;;;2.80;99.90;;;;;;5081542;28;20059;-70
2022/03/03 08:56:00;;;;;;;108.95;66.68;;;2.90;99.90;;;;;;5086065;28;20044;-70
2022/03/03 08:58:26;;;;;;;105.85;64.25;;;3.00;99.90;;;;;;5085839;28;20048;-70
2022/03/03 09:00:53;;;;;;;111.90;67.40;;;3.10;99.90;;;;;;5088064;28;20048;-69
2022/03/03 09:03:22;;;;;;;103.95;66.88;;;3.10;99.90;;;;;;5076568;28;20083;-70
2022/03/03 09:05:50;;;;;;;97.43;59.90;;;3.20;99.90;;;;;;5105890;27;20067;-70
2022/03/03 09:08:15;;;;;;;94.03;60.45;;;3.40;99.90;;;;;;5087546;28;20048;-69
2022/03/03 09:10:41;;;;;;;112.35;60.40;;;3.60;99.90;;;;;;5087634;28;20052;-70
2022/03/03 09:13:07;;;;;;;98.45;60.53;;;3.70;99.90;;;;;;5086529;28;20105;-69
2022/03/03 09:15:33;;;;;;;94.20;59.38;;;3.90;99.90;;;;;;5086822;28;20123;-69
2022/03/03 09:18:00;;;;;;;95.28;60.17;;;4.10;99.90;;;;;;5083780;28;20457;-70
2022/03/03 09:20:26;;;;;;;92.78;58.53;;;4.20;99.90;;;;;;5084627;28;20051;-70
2022/03/03 09:22:52;;;;;;;86.05;53.80;;;4.30;99.90;;;;;;5067763;28;20052;-69
2022/03/03 09:25:18;;;;;;;91.80;56.63;;;4.50;99.90;;;;;;5069285;28;20439;-70
2022/03/03 09:27:44;;;;;;;90.22;55.97;;;4.60;99.90;;;;;;5084111;28;20048;-69
2022/03/03 09:30:11;;;;;;;90.97;55.88;;;4.80;99.90;;;;;;5069567;28;20048;-70
2022/03/03 09:32:38;;;;;;;83.30;54.65;;;4.90;99.90;;;;;;5087264;28;20050;-70
2022/03/03 09:35:05;;;;;;;89.50;57.03;;;5.00;99.90;;;;;;5069792;28;20090;-70
2022/03/03 09:37:31;;;;;;;83.07;51.17;;;5.10;99.90;;;;;;5068251;28;20045;-70
2022/03/03 09:39:56;;;;;;;90.75;51.83;;;5.20;99.90;;;;;;5088180;28;20042;-70
2022/03/03 09:42:22;;;;;;;83.50;51.60;;;5.30;99.90;;;;;;5085240;28;20044;-71
2022/03/03 09:44:48;;;;;;;78.80;50.28;;;5.40;99.90;;;;;;5104824;28;20155;-70
2022/03/03 09:47:16;;;;;;;78.03;51.55;;;5.40;99.90;;;;;;5069728;28;20094;-70
2022/03/03 09:49:42;;;;;;;78.38;49.47;;;5.50;99.90;;;;;;5064690;28;20044;-71
2022/03/03 09:52:16;;;;;;;80.38;49.70;;;5.70;99.90;;;;;;5067934;28;20416;-70
2022/03/03 09:54:43;;;;;;;75.97;47.88;;;5.90;99.90;;;;;;5103703;28;20044;-70
2022/03/03 09:57:09;;;;;;;74.47;46.65;;;6.00;99.90;;;;;;5085073;28;20043;-71
2022/03/03 09:59:34;;;;;;;75.25;47.95;;;6.10;99.90;;;;;;5069731;28;20048;-71
2022/03/03 10:02:04;;;;;;;75.63;48.88;;;6.20;99.90;;;;;;5090436;28;20043;-71
2022/03/03 10:04:30;;;;;;;67.35;43.85;;;6.30;99.90;;;;;;5082069;28;20044;-70
2022/03/03 10:07:05;;;;;;;81.05;48.25;;;6.40;99.90;;;;;;5104204;28;20089;-72
2022/03/03 10:09:33;;;;;;;70.88;45.80;;;6.70;99.90;;;;;;5086110;28;20059;-71
2022/03/03 10:11:59;;;;;;;70.53;45.83;;;6.80;99.90;;;;;;5058732;28;20123;-71
2022/03/03 10:14:27;;;;;;;70.45;43.88;;;6.90;99.90;;;;;;5089638;28;20048;-70
2022/03/03 10:16:53;;;;;;;72.32;47.60;;;7.00;99.90;;;;;;5068758;28;20051;-71
2022/03/03 10:19:19;;;;;;;69.32;46.65;;;7.00;99.90;;;;;;5083483;28;20081;-71
2022/03/03 10:21:44;;;;;;;68.35;43.47;;;7.10;99.90;;;;;;5087433;28;20215;-71
2022/03/03 10:24:24;;;;;;;68.18;48.08;;;7.10;99.90;;;;;;5085645;28;20044;-72
2022/03/03 10:26:58;;;;;;;67.45;42.67;;;7.20;99.90;;;;;;5086980;28;20168;-71
2022/03/03 10:29:24;;;;;;;70.75;47.35;;;7.40;99.90;;;;;;5088093;28;20035;-71
2022/03/03 10:31:51;;;;;;;73.63;45.78;;;7.40;99.90;;;;;;5087300;28;20048;-70
2022/03/03 10:34:30;;;;;;;67.68;43.40;;;7.50;99.90;;;;;;5086743;28;20090;-70
2022/03/03 10:37:07;;;;;;;70.97;46.58;;;7.60;99.90;;;;;;5084229;28;20090;-72
2022/03/03 10:39:48;;;;;;;85.55;44.53;;;7.70;99.90;;;;;;5102702;27;20135;-71
2022/03/03 10:42:22;;;;;;;72.50;43.05;;;7.60;99.90;;;;;;5086721;28;20052;-72
2022/03/03 10:44:49;;;;;;;64.95;43.65;;;7.70;99.90;;;;;;5067759;28;20162;-73
2022/03/03 10:47:17;;;;;;;72.10;42.33;;;7.90;99.90;;;;;;5099344;27;20040;-71
2022/03/03 10:49:45;;;;;;;67.28;41.35;;;7.90;99.90;;;;;;5068677;28;20399;-72
2022/03/03 10:52:27;;;;;;;60.45;40.60;;;8.10;99.90;;;;;;5088102;28;20465;-73
2022/03/03 10:55:03;;;;;;;60.35;38.67;;;8.20;99.90;;;;;;5085867;28;20094;-72
2022/03/03 10:57:30;;;;;;;59.17;39.70;;;8.40;98.50;;;;;;5073712;28;20055;-72
2022/03/03 10:59:58;;;;;;;66.63;40.67;;;8.50;99.00;;;;;;5104282;27;20487;-73
2022/03/03 11:02:27;;;;;;;60.35;38.47;;;8.50;94.40;;;;;;5071681;28;20090;-72
2022/03/03 11:04:53;;;;;;;57.65;37.55;;;8.50;95.00;;;;;;5089349;28;20109;-73
2022/03/03 11:07:20;;;;;;;54.72;37.95;;;8.60;94.00;;;;;;5079982;28;20455;-73
2022/03/03 11:09:47;;;;;;;57.05;37.10;;;8.70;93.50;;;;;;5071120;28;20036;-73
2022/03/03 11:12:13;;;;;;;52.22;36.40;;;8.80;95.00;;;;;;5087272;28;20039;-73
2022/03/03 11:14:39;;;;;;;60.83;37.50;;;8.80;94.20;;;;;;5088648;28;20040;-73
2022/03/03 11:17:06;;;;;;;62.78;38.33;;;8.90;94.10;;;;;;5087878;28;20032;-73
2022/03/03 11:19:32;;;;;;;57.30;37.92;;;8.80;92.60;;;;;;5089328;28;20032;-73
2022/03/03 11:21:59;;;;;;;62.53;39.67;;;8.70;94.60;;;;;;5088621;28;20127;-73
2022/03/03 11:24:25;;;;;;;62.88;38.95;;;8.70;94.70;;;;;;5086699;28;20051;-73
2022/03/03 11:26:51;;;;;;;64.80;40.85;;;8.80;92.40;;;;;;5089132;28;20497;-73
2022/03/03 11:29:20;;;;;;;63.60;40.60;;;8.80;94.40;;;;;;5087067;28;20093;-73
2022/03/03 11:32:00;;;;;;;65.05;41.15;;;9.00;93.40;;;;;;5086075;28;20097;-73
2022/03/03 11:34:30;;;;;;;63.22;39.85;;;8.90;91.20;;;;;;5087050;28;20050;-73
2022/03/03 11:37:09;;;;;;;63.90;39.55;;;9.00;92.60;;;;;;5070609;28;20572;-73
2022/03/03 11:39:52;;;;;;;61.40;41.10;;;9.00;93.30;;;;;;5056927;28;20408;-73
2022/03/03 11:42:20;;;;;;;70.85;44.92;;;8.90;92.00;;;;;;5067895;28;20051;-73
2022/03/03 11:44:46;;;;;;;52.00;36.58;;;8.90;93.10;;;;;;5072294;28;20075;-73
2022/03/03 11:47:22;;;;;;;62.47;36.95;;;9.00;93.70;;;;;;5070886;28;20126;-73
2022/03/03 11:49:59;;;;;;;62.20;40.47;;;9.00;92.00;;;;;;5080925;28;20084;-73
2022/03/03 11:52:25;;;;;;;58.28;39.25;;;9.00;93.00;;;;;;5087600;28;20083;-73
2022/03/03 11:55:00;;;;;;;63.90;42.88;;;9.10;93.90;;;;;;5097418;27;20048;-73
2022/03/03 11:57:32;;;;;;;68.38;41.67;;;9.10;94.10;;;;;;5087897;28;20079;-73
2022/03/03 12:00:06;;;;;;;70.25;46.00;;;9.00;93.70;;;;;;5089436;28;20059;-72
2022/03/03 12:02:33;;;;;;;72.63;45.40;;;9.00;95.20;;;;;;5068260;28;20051;-71
2022/03/03 12:05:26;;;;;;;70.28;42.90;;;9.00;93.50;;;;;;5102469;27;20037;-71
2022/03/03 12:07:59;;;;;;;78.35;45.22;;;9.00;94.10;;;;;;5098299;27;20067;-72
2022/03/03 12:10:25;;;;;;;77.95;47.35;;;9.00;93.90;;;;;;5084977;28;20069;-71
2022/03/03 12:12:51;;;;;;;68.68;41.75;;;9.20;94.50;;;;;;5068707;28;20040;-71
2022/03/03 12:15:17;;;;;;;78.75;45.53;;;9.20;94.20;;;;;;5088172;28;20044;-71
2022/03/03 12:18:02;;;;;;;71.45;45.72;;;9.30;93.30;;;;;;5088110;28;20094;-71
2022/03/03 12:20:34;;;;;;;68.88;44.28;;;9.20;94.00;;;;;;5069178;28;20040;-71
2022/03/03 12:23:10;;;;;;;63.58;41.70;;;9.30;94.90;;;;;;5072366;28;20044;-71
2022/03/03 12:25:51;;;;;;;67.75;45.60;;;9.30;94.40;;;;;;5086996;28;20036;-72
2022/03/03 12:28:47;;;;;;;76.18;45.28;;;9.40;96.30;;;;;;5085029;28;20055;-72
2022/03/03 12:31:29;;;;;;;67.82;42.35;;;9.30;92.80;;;;;;5091427;27;20048;-72